Time;durP1;ratioP1;P1;durP2;ratioP2;P2;SDS_P1;SDS_P2;PMS_P1;PMS_P2;Temp;Humidity;BMP_temperature;BMP_pressure;BME280_temperature;BME280_humidity;BME280_pressure;Samples;Min_cycle;Max_cycle;Signal;HPM_P1;HPM_P2
2022/06/23 00:01:10;;;;;;;0.73;0.73;;;;;;;23.55;35.04;100129.47;5057246;28;20486;-63
2022/06/23 00:03:36;;;;;;;0.70;0.70;;;;;;;23.56;34.96;100117.44;5056019;28;20020;-63
2022/06/23 00:06:04;;;;;;;0.50;0.50;;;;;;;23.56;35.34;100122.91;5055719;28;20463;-63
2022/06/23 00:08:29;;;;;;;0.68;0.68;;;;;;;23.54;35.16;100120.47;5057127;28;20033;-63
2022/06/23 00:10:57;;;;;;;0.63;0.63;;;;;;;23.54;35.24;100130.56;5056984;28;20462;-63
2022/06/23 00:13:33;;;;;;;0.70;0.70;;;;;;;23.53;35.22;100134.41;5056974;28;20033;-63
2022/06/23 00:15:59;;;;;;;0.70;0.70;;;;;;;23.54;35.11;100146.91;5056612;28;20467;-63
2022/06/23 00:18:26;;;;;;;0.82;0.82;;;;;;;23.53;35.21;100150.75;5072876;28;20067;-63
2022/06/23 00:20:59;;;;;;;0.70;0.70;;;;;;;23.53;35.21;100150.75;5076444;28;20059;-63
2022/06/23 00:23:28;;;;;;;0.68;0.68;;;;;;;23.52;35.26;100144.47;5075340;28;20032;-63
2022/06/23 00:25:58;;;;;;;0.65;0.65;;;;;;;23.52;35.19;100143.66;5075293;28;20040;-63
2022/06/23 00:28:48;;;;;;;0.80;0.80;;;;;;;23.52;35.19;100139.00;5076047;28;20037;-63
2022/06/23 00:31:29;;;;;;;0.70;0.70;;;;;;;23.55;35.06;100137.66;5076128;28;20129;-63
2022/06/23 00:33:54;;;;;;;0.70;0.70;;;;;;;23.54;34.97;100138.75;5076803;28;20035;-63
2022/06/23 00:36:41;;;;;;;0.63;0.63;;;;;;;23.51;35.24;100142.84;5075615;28;20041;-63
2022/06/23 00:39:28;;;;;;;0.70;0.70;;;;;;;23.53;35.07;100146.13;5076794;28;20123;-63
2022/06/23 00:41:53;;;;;;;0.55;0.55;;;;;;;23.52;35.03;100138.22;5076992;28;20024;-63
2022/06/23 00:44:48;;;;;;;0.75;0.75;;;;;;;23.54;35.20;100146.91;5076736;28;20043;-61
2022/06/23 00:47:17;;;;;;;0.60;0.60;;;;;;;23.51;35.09;100139.28;5034673;28;20087;-61
2022/06/23 00:49:56;;;;;;;0.80;0.80;;;;;;;23.50;34.84;100145.84;5002497;28;20037;-62
2022/06/23 00:52:46;;;;;;;0.80;0.80;;;;;;;23.50;35.18;100145.84;5019530;28;20049;-63
2022/06/23 00:55:43;;;;;;;0.82;0.70;;;;;;;23.51;35.28;100137.41;5002021;28;20033;-63
2022/06/23 00:58:32;;;;;;;0.68;0.68;;;;;;;23.50;35.03;100143.13;4959489;28;20490;-63
2022/06/23 01:01:14;;;;;;;0.60;0.60;;;;;;;23.49;34.99;100149.66;4976552;28;20034;-63
2022/06/23 01:03:45;;;;;;;0.75;0.75;;;;;;;23.51;34.89;100150.19;4976172;28;20035;-62
2022/06/23 01:06:19;;;;;;;0.88;0.88;;;;;;;23.48;34.86;100153.50;4976530;28;20035;-64
2022/06/23 01:08:49;;;;;;;0.60;0.60;;;;;;;23.48;35.05;100154.31;4976097;28;20125;-61
2022/06/23 01:11:34;;;;;;;0.85;0.85;;;;;;;23.49;35.12;100149.66;4976372;28;20042;-64
2022/06/23 01:14:13;;;;;;;0.60;0.60;;;;;;;23.50;35.01;100154.03;4974768;28;20466;-63
2022/06/23 01:16:39;;;;;;;0.60;0.60;;;;;;;23.49;34.76;100138.75;4974274;28;20042;-63
2022/06/23 01:19:23;;;;;;;0.70;0.70;;;;;;;23.48;35.08;100142.59;4955270;29;20578;-63
2022/06/23 01:21:53;;;;;;;0.73;0.73;;;;;;;23.47;34.99;100135.50;4955489;29;20039;-63
2022/06/23 01:24:56;;;;;;;0.80;0.80;;;;;;;23.47;34.96;100135.50;4977842;28;20050;-64
2022/06/23 01:27:36;;;;;;;0.57;0.57;;;;;;;23.46;34.85;100134.69;4993715;28;20404;-64
2022/06/23 01:30:06;;;;;;;0.70;0.70;;;;;;;23.45;34.80;100141.25;4978692;28;20041;-63
2022/06/23 01:32:42;;;;;;;0.60;0.60;;;;;;;23.46;34.32;100133.84;4994580;28;20392;-63
2022/06/23 01:35:21;;;;;;;0.75;0.75;;;;;;;23.40;34.47;100125.72;5034356;28;20041;-64
2022/06/23 01:37:53;;;;;;;0.85;0.85;;;;;;;23.45;34.50;100133.06;5037893;28;20025;-64
2022/06/23 01:40:34;;;;;;;0.70;0.70;;;;;;;23.47;34.39;100127.31;5055376;28;20025;-64
2022/06/23 01:43:25;;;;;;;0.73;0.73;;;;;;;23.46;34.44;100128.41;5053813;28;20108;-64
2022/06/23 01:45:59;;;;;;;0.60;0.60;;;;;;;23.44;34.28;100129.53;5053750;28;20111;-63
2022/06/23 01:51:27;;;;;;;0.73;0.73;;;;;;;23.44;33.88;100126.78;5054960;28;20047;-63
2022/06/23 01:53:55;;;;;;;0.70;0.70;;;;;;;23.42;33.91;100134.44;5053650;28;20108;-62
2022/06/23 01:56:40;;;;;;;0.80;0.80;;;;;;;23.42;33.91;100137.16;5055044;28;20043;-62
2022/06/23 01:59:18;;;;;;;0.75;0.75;;;;;;;23.42;33.45;100139.91;5053736;28;20025;-64
2022/06/23 02:01:50;;;;;;;0.70;0.70;;;;;;;23.43;33.42;100136.06;5037820;28;20025;-62
2022/06/23 02:04:24;;;;;;;0.63;0.63;;;;;;;23.41;33.55;100132.81;5053820;28;20103;-64
2022/06/23 02:07:30;;;;;;;0.88;0.88;;;;;;;23.46;33.52;100123.78;5054763;28;20036;-63
2022/06/23 02:10:22;;;;;;;0.60;0.60;;;;;;;23.46;33.32;100131.97;5012675;28;20066;-63
2022/06/23 02:12:48;;;;;;;0.80;0.80;;;;;;;23.43;33.51;100130.59;4954353;29;20077;-63
2022/06/23 02:15:29;;;;;;;0.70;0.70;;;;;;;23.44;33.15;100125.97;4954483;29;20066;-68
2022/06/23 02:18:06;;;;;;;0.70;0.70;;;;;;;23.42;33.14;100128.16;4938197;29;20426;-68
2022/06/23 02:20:37;;;;;;;0.65;0.65;;;;;;;23.40;33.36;100131.19;4954262;28;20106;-69
2022/06/23 02:23:13;;;;;;;0.80;0.80;;;;;;;23.40;33.27;100142.09;4954170;29;20101;-69
2022/06/23 02:25:41;;;;;;;0.80;0.80;;;;;;;23.40;33.13;100136.63;4953689;29;20050;-69
2022/06/23 02:28:17;;;;;;;0.55;0.55;;;;;;;23.39;33.15;100132.28;4954072;29;20031;-69
2022/06/23 02:30:55;;;;;;;0.70;0.70;;;;;;;23.40;33.32;100131.19;4938101;29;20059;-69
2022/06/23 02:33:50;;;;;;;0.60;0.60;;;;;;;23.39;33.14;100129.53;4938203;29;20066;-69
2022/06/23 02:36:21;;;;;;;0.70;0.70;;;;;;;23.41;33.29;100126.53;4940749;29;20045;-69
2022/06/23 02:38:58;;;;;;;0.82;0.80;;;;;;;23.40;33.26;100124.91;4937976;29;20047;-69
2022/06/23 02:41:28;;;;;;;0.70;0.70;;;;;;;23.40;33.17;100128.47;4953836;29;20050;-69
2022/06/23 02:44:08;;;;;;;0.70;0.70;;;;;;;23.39;33.01;100135.00;4937955;29;20137;-69
2022/06/23 02:46:33;;;;;;;0.82;0.80;;;;;;;23.39;33.41;100135.00;4993471;28;20069;-69
2022/06/23 02:49:05;;;;;;;0.82;0.82;;;;;;;23.38;33.15;100138.00;5017580;28;20257;-70
2022/06/23 02:52:06;;;;;;;0.70;0.70;;;;;;;23.38;33.19;100132.53;5034055;28;20124;-70
2022/06/23 02:54:41;;;;;;;0.70;0.70;;;;;;;23.38;33.24;100144.25;5033004;28;20021;-68
2022/06/23 02:57:42;;;;;;;0.70;0.70;;;;;;;23.38;33.16;100152.44;5033726;28;20116;-69
2022/06/23 03:00:23;;;;;;;0.70;0.70;;;;;;;23.37;33.10;100142.66;5032566;28;20052;-69
2022/06/23 03:03:10;;;;;;;0.80;0.80;;;;;;;23.36;33.26;100146.44;5033921;28;20025;-66
2022/06/23 03:05:55;;;;;;;0.60;0.60;;;;;;;23.40;33.05;100150.28;5034299;28;20032;-66
2022/06/23 03:08:20;;;;;;;0.80;0.80;;;;;;;23.42;33.09;100145.34;5016589;28;20033;-65
2022/06/23 03:10:50;;;;;;;0.80;0.80;;;;;;;23.43;33.26;100163.31;5033479;28;20030;-65
2022/06/23 03:13:37;;;;;;;0.85;0.85;;;;;;;23.48;33.41;100164.41;5032506;28;20033;-65
2022/06/23 03:16:14;;;;;;;0.90;0.90;;;;;;;23.49;33.07;100160.59;5033468;28;20033;-65
2022/06/23 03:18:41;;;;;;;0.70;0.70;;;;;;;23.48;33.01;100148.88;5063925;28;20032;-65
2022/06/23 03:21:12;;;;;;;0.70;0.70;;;;;;;23.47;32.93;100130.06;5073739;28;20021;-65
2022/06/23 03:23:47;;;;;;;0.70;0.70;;;;;;;23.50;33.09;100124.84;5055673;28;20508;-65
2022/06/23 03:26:37;;;;;;;0.82;0.70;;;;;;;23.57;33.14;100130.00;5055848;28;20056;-66
2022/06/23 03:29:34;;;;;;;0.60;0.60;;;;;;;23.58;33.08;100139.81;5073143;28;20043;-65
2022/06/23 03:32:23;;;;;;;0.80;0.80;;;;;;;23.60;32.94;100140.34;5071262;28;20559;-65
2022/06/23 03:35:22;;;;;;;1.00;0.88;;;;;;;23.65;32.85;100158.63;5073412;28;20178;-67
2022/06/23 03:37:51;;;;;;;0.70;0.70;;;;;;;23.65;32.71;100164.88;5073463;28;20086;-64
2022/06/23 03:43:54;;;;;;;0.68;0.68;;;;;;;23.68;32.75;100158.88;5031457;28;20115;-63
2022/06/23 03:46:29;;;;;;;0.50;0.50;;;;;;;23.72;32.74;100165.38;5016284;28;20053;-63
2022/06/23 03:48:59;;;;;;;0.80;0.80;;;;;;;23.74;32.74;100184.22;5014840;28;20025;-63
2022/06/23 03:51:38;;;;;;;0.82;0.80;;;;;;;23.77;32.52;100197.28;5014570;28;20038;-63
2022/06/23 03:54:14;;;;;;;0.70;0.70;;;;;;;23.77;32.32;100200.03;4998406;28;20109;-63
2022/06/23 03:56:55;;;;;;;2.33;1.02;;;;;;;23.81;32.60;100198.38;5014600;28;20036;-61
2022/06/23 03:59:50;;;;;;;3.70;0.80;;;;;;;23.84;32.65;100188.84;5014775;28;20026;-61
2022/06/23 04:02:20;;;;;;;2.22;0.70;;;;;;;23.85;32.51;100187.72;5025335;28;20042;-63
2022/06/23 04:04:53;;;;;;;1.75;0.95;;;;;;;23.86;32.49;100192.09;5030675;28;20037;-62
2022/06/23 04:07:28;;;;;;;7.23;0.93;;;;;;;23.87;32.53;100188.25;5014488;28;20026;-63
2022/06/23 04:09:54;;;;;;;2.40;0.80;;;;;;;23.83;32.49;100176.28;5030729;28;20059;-63
2022/06/23 04:12:19;;;;;;;5.18;1.10;;;;;;;23.87;32.40;100163.69;5015041;28;20052;-63
2022/06/23 04:14:55;;;;;;;3.28;0.90;;;;;;;23.87;32.53;100164.53;5030875;28;20480;-63
2022/06/23 04:17:21;;;;;;;5.85;0.80;;;;;;;23.89;32.43;100164.25;5040198;28;20052;-63
2022/06/23 04:19:52;;;;;;;1.70;1.10;;;;;;;23.88;32.46;100173.53;5052409;28;20028;-63
2022/06/23 04:22:30;;;;;;;1.83;1.08;;;;;;;23.90;32.54;100174.84;5051358;28;20328;-61
2022/06/23 04:24:59;;;;;;;2.25;0.90;;;;;;;23.91;32.47;100172.97;5050915;28;20388;-61
2022/06/23 04:27:31;;;;;;;2.88;0.80;;;;;;;23.93;32.46;100170.75;5034886;28;20041;-61
2022/06/23 04:29:57;;;;;;;0.80;0.80;;;;;;;23.97;32.36;100163.63;5051391;28;20024;-63
2022/06/23 04:32:34;;;;;;;0.93;0.93;;;;;;;23.97;32.32;100160.91;5034783;28;20029;-64
2022/06/23 04:35:14;;;;;;;0.70;0.70;;;;;;;23.96;32.37;100154.63;5051481;28;20030;-61
2022/06/23 04:37:39;;;;;;;0.85;0.80;;;;;;;23.99;32.37;100169.63;5035543;28;20031;-63
2022/06/23 04:40:15;;;;;;;0.73;0.73;;;;;;;23.94;32.33;100166.91;5052793;28;20387;-63
2022/06/23 04:42:56;;;;;;;1.05;0.90;;;;;;;23.97;32.24;100163.63;5051208;28;20052;-63
2022/06/23 04:45:27;;;;;;;1.67;0.80;;;;;;;23.99;32.34;100173.19;5054072;28;20103;-64
2022/06/23 04:47:53;;;;;;;0.75;0.75;;;;;;;24.01;32.29;100164.72;5054550;28;20586;-64
2022/06/23 04:50:40;;;;;;;1.10;0.80;;;;;;;24.01;32.53;100172.91;5055689;28;20044;-62
2022/06/23 04:53:06;;;;;;;0.73;0.73;;;;;;;24.03;32.36;100164.44;5055220;28;20053;-62
2022/06/23 04:55:32;;;;;;;0.88;0.75;;;;;;;23.99;32.57;100169.63;5055775;28;20477;-62
2022/06/23 04:58:10;;;;;;;1.58;0.88;;;;;;;24.02;32.71;100162.78;5037655;28;20021;-63
2022/06/23 05:00:47;;;;;;;0.93;0.82;;;;;;;23.99;32.81;100165.00;5054091;28;20451;-65
2022/06/23 05:03:18;;;;;;;35.35;6.13;;;;;;;23.97;32.82;100171.81;5055327;28;20032;-64
2022/06/23 05:05:43;;;;;;;31.00;4.80;;;;;;;24.00;32.82;100179.44;5054264;28;20021;-63
2022/06/23 05:08:15;;;;;;;91.55;10.23;;;;;;;24.02;32.94;100179.97;5054124;28;20028;-64
2022/06/23 05:11:03;;;;;;;48.85;5.80;;;;;;;24.06;33.27;100174.75;5055470;28;20037;-64
2022/06/23 05:13:30;;;;;;;26.55;4.45;;;;;;;24.07;33.02;100181.88;5055243;28;20040;-63
2022/06/23 05:16:01;;;;;;;8.90;2.65;;;;;;;24.06;32.93;100186.53;5038169;28;20162;-63
2022/06/23 05:18:32;;;;;;;10.30;2.00;;;;;;;24.06;33.19;100177.50;5066748;28;20040;-63
2022/06/23 05:20:58;;;;;;;6.45;2.03;;;;;;;24.06;32.95;100180.22;5073727;28;20470;-64
2022/06/23 05:23:29;;;;;;;7.45;2.42;;;;;;;24.10;33.38;100178.59;5074892;28;20041;-63
2022/06/23 05:25:55;;;;;;;5.47;1.83;;;;;;;24.00;33.54;100182.19;5075484;28;20103;-64
2022/06/23 05:28:25;;;;;;;5.95;2.00;;;;;;;24.05;33.04;100173.16;5075342;28;20020;-64
2022/06/23 05:30:53;;;;;;;5.53;2.10;;;;;;;24.09;33.12;100174.22;5074555;28;20355;-63
2022/06/23 05:33:25;;;;;;;4.47;2.15;;;;;;;24.08;33.04;100178.84;5057216;28;20374;-63
2022/06/23 05:35:53;;;;;;;11.57;2.83;;;;;;;24.10;33.14;100179.38;5073756;28;20036;-64
2022/06/23 05:39:10;;;;;;;6.78;1.98;;;;;;;24.05;33.42;100182.16;5074285;28;20052;-65
2022/06/23 05:41:37;;;;;;;4.53;1.88;;;;;;;24.09;33.04;100187.84;5032614;28;20038;-64
2022/06/23 05:44:04;;;;;;;3.95;1.70;;;;;;;24.09;33.45;100182.41;5016084;28;20111;-64
2022/06/23 05:46:30;;;;;;;4.05;1.58;;;;;;;24.04;33.13;100179.69;5032545;28;20037;-62
2022/06/23 05:49:00;;;;;;;4.15;1.60;;;;;;;24.02;33.23;100184.63;5032495;28;20091;-62
2022/06/23 05:51:34;;;;;;;3.33;1.50;;;;;;;24.12;33.42;100187.28;5016281;28;20051;-63
2022/06/23 05:54:05;;;;;;;4.03;1.45;;;;;;;24.05;33.54;100178.63;5016486;28;20021;-62
2022/06/23 05:56:35;;;;;;;3.40;1.75;;;;;;;24.10;33.83;100173.94;5032127;28;20263;-62
2022/06/23 05:59:00;;;;;;;72.35;31.65;;;;;;;24.14;33.74;100174.97;5016364;28;20040;-63
2022/06/23 06:01:34;;;;;;;39.03;19.15;;;;;;;24.14;33.73;100174.97;5032468;28;20030;-62
2022/06/23 06:04:13;;;;;;;446.13;152.52;;;;;;;24.14;33.91;100174.97;5032407;28;20248;-64
2022/06/23 06:06:38;;;;;;;228.68;82.40;;;;;;;24.07;33.92;100182.69;5017161;28;20061;-65
2022/06/23 06:11:51;;;;;;;73.90;29.25;;;;;;;24.04;34.00;100177.78;5032824;28;20045;-63
2022/06/23 06:14:21;;;;;;;59.97;22.20;;;;;;;24.06;34.32;100178.34;5032257;28;20025;-63
2022/06/23 06:16:46;;;;;;;49.67;18.85;;;;;;;24.12;34.46;100185.38;5032620;28;20056;-63
2022/06/23 06:19:15;;;;;;;34.92;12.85;;;;;;;24.08;34.03;100178.84;5057403;28;20029;-63
2022/06/23 06:21:41;;;;;;;27.23;10.57;;;;;;;24.13;34.16;100176.09;5052681;28;20111;-63
2022/06/23 06:24:14;;;;;;;16.80;6.38;;;;;;;24.15;33.72;100179.34;5052656;28;20056;-64
2022/06/23 06:26:52;;;;;;;18.45;7.35;;;;;;;24.13;34.06;100176.09;5036387;28;20490;-64
2022/06/23 06:29:31;;;;;;;11.70;5.40;;;;;;;24.15;33.71;100168.44;5035995;28;20025;-64
2022/06/23 06:32:13;;;;;;;10.65;4.57;;;;;;;24.28;34.22;100174.34;5052950;28;20021;-63
2022/06/23 06:34:42;;;;;;;12.48;4.93;;;;;;;24.28;34.39;100172.44;5037977;28;20029;-64
2022/06/23 06:37:09;;;;;;;7.70;3.75;;;;;;;24.28;34.78;100163.44;5054136;28;20211;-65
2022/06/23 06:39:36;;;;;;;7.20;3.45;;;;;;;24.27;34.44;100164.53;5053677;28;20100;-64
2022/06/23 06:42:04;;;;;;;9.55;3.53;;;;;;;24.23;34.46;100169.72;5052769;28;20017;-64
2022/06/23 06:44:30;;;;;;;6.72;2.92;;;;;;;24.32;34.26;100167.22;5054457;28;20060;-64
2022/06/23 06:46:55;;;;;;;4.90;2.08;;;;;;;24.38;34.26;100166.06;5052519;28;20087;-64
2022/06/23 06:49:22;;;;;;;7.60;2.72;;;;;;;24.37;34.23;100167.19;5053893;28;20045;-64
2022/06/23 06:51:49;;;;;;;4.40;2.45;;;;;;;24.36;34.34;100168.28;5054260;28;20087;-64
2022/06/23 06:54:20;;;;;;;6.13;2.30;;;;;;;24.35;34.60;100163.91;5053586;28;20024;-63
2022/06/23 06:56:47;;;;;;;6.55;2.42;;;;;;;24.35;34.42;100169.38;5053598;28;20068;-64
2022/06/23 06:59:20;;;;;;;2.22;1.52;;;;;;;24.33;33.95;100158.72;5053030;28;20521;-64
2022/06/23 07:01:57;;;;;;;3.70;1.83;;;;;;;24.41;33.67;100167.44;5054353;28;20025;-62
2022/06/23 07:04:29;;;;;;;2.72;1.80;;;;;;;24.44;33.93;100166.84;5037189;28;20095;-64
2022/06/23 07:07:00;;;;;;;4.72;1.63;;;;;;;24.43;33.94;100159.78;5051627;28;20113;-64
2022/06/23 07:09:34;;;;;;;3.38;1.60;;;;;;;24.44;33.79;100162.22;5036100;28;20063;-64
2022/06/23 07:12:40;;;;;;;1.83;1.42;;;;;;;24.49;33.43;100153.16;5052248;28;20025;-61
2022/06/23 07:15:15;;;;;;;2.65;1.40;;;;;;;24.42;33.58;100149.94;4999050;28;20058;-62
2022/06/23 07:17:43;;;;;;;2.17;1.40;;;;;;;24.47;33.66;100147.16;4998033;28;20037;-64
2022/06/23 07:20:19;;;;;;;1.58;1.10;;;;;;;24.42;33.39;100150.75;5047014;28;20498;-63
2022/06/23 07:22:48;;;;;;;1.90;1.13;;;;;;;24.42;33.45;100156.19;5030927;28;20120;-62
2022/06/23 07:25:26;;;;;;;1.33;1.08;;;;;;;24.54;33.35;100164.91;5030393;28;20041;-60
2022/06/23 07:28:11;;;;;;;4.03;3.40;;;;;;;24.53;33.19;100165.94;5047462;28;20053;-62
2022/06/23 07:30:43;;;;;;;1.90;1.50;;;;;;;24.52;33.36;100160.78;5031162;28;20203;-64
2022/06/23 07:33:15;;;;;;;2.08;1.60;;;;;;;24.55;33.11;100161.03;5030505;28;20116;-63
2022/06/23 07:35:49;;;;;;;1.65;1.05;;;;;;;24.58;33.07;100169.75;5030729;28;20037;-63
2022/06/23 07:38:39;;;;;;;1.08;0.98;;;;;;;24.59;33.18;100166.75;5030944;28;20033;-62
2022/06/23 07:41:10;;;;;;;1.42;0.90;;;;;;;24.52;33.02;100174.44;5030599;28;20079;-63
2022/06/23 07:44:14;;;;;;;1.25;0.93;;;;;;;24.53;32.97;100174.16;5030614;28;20044;-62
2022/06/23 07:46:40;;;;;;;1.40;0.73;;;;;;;24.54;32.72;100169.53;5028159;28;20038;-63
2022/06/23 07:49:06;;;;;;;1.10;1.00;;;;;;;24.52;32.81;100167.03;5032563;28;20499;-63
2022/06/23 07:51:32;;;;;;;0.95;0.80;;;;;;;24.46;32.83;100170.94;5066215;28;20040;-63
2022/06/23 07:53:58;;;;;;;0.80;0.80;;;;;;;24.49;32.97;100177.72;5072644;28;20029;-63
2022/06/23 07:56:26;;;;;;;0.60;0.60;;;;;;;24.47;32.76;100169.81;5071183;28;20040;-62
2022/06/23 07:58:57;;;;;;;0.77;0.77;;;;;;;24.54;32.86;100181.28;5073049;28;20346;-62
2022/06/23 08:01:27;;;;;;;0.60;0.60;;;;;;;24.61;32.73;100169.19;5073534;28;20085;-64
2022/06/23 08:04:08;;;;;;;1.52;0.70;;;;;;;24.57;32.68;100173.63;5072906;28;20033;-62
2022/06/23 08:06:34;;;;;;;0.70;0.70;;;;;;;24.61;32.42;100167.31;5072043;28;20040;-63
2022/06/23 08:09:15;;;;;;;0.60;0.60;;;;;;;24.65;32.27;100173.81;5073804;28;20085;-62
2022/06/23 08:14:30;;;;;;;1.40;1.00;;;;;;;24.64;32.22;100168.63;5072880;28;20034;-63
2022/06/23 08:16:55;;;;;;;0.90;0.70;;;;;;;24.60;32.50;100173.84;5072818;28;20127;-62
2022/06/23 08:19:39;;;;;;;0.82;0.82;;;;;;;24.60;32.65;100159.38;5058413;28;20452;-62
2022/06/23 08:22:32;;;;;;;0.70;0.70;;;;;;;24.58;32.32;100169.75;5055071;28;20032;-62
2022/06/23 08:25:00;;;;;;;1.00;0.85;;;;;;;24.65;32.17;100159.34;5052593;28;20147;-62
2022/06/23 08:27:28;;;;;;;1.08;0.80;;;;;;;24.63;32.23;100167.00;5056309;28;20082;-62
2022/06/23 08:30:07;;;;;;;0.63;0.60;;;;;;;24.59;32.21;100155.00;5056304;28;20052;-62
2022/06/23 08:32:32;;;;;;;0.50;0.50;;;;;;;24.60;32.42;100156.66;5055758;28;20474;-62
2022/06/23 08:35:11;;;;;;;1.00;0.80;;;;;;;24.58;32.52;100167.03;5038422;28;20029;-61
2022/06/23 08:37:43;;;;;;;0.70;0.70;;;;;;;24.60;32.33;100173.06;5056123;28;20056;-61
2022/06/23 08:40:31;;;;;;;1.45;0.57;;;;;;;24.62;32.42;100159.91;5039040;28;20025;-61
2022/06/23 08:43:32;;;;;;;0.70;0.70;;;;;;;24.57;32.38;100166.22;5056126;28;20017;-60
2022/06/23 08:46:24;;;;;;;1.58;0.60;;;;;;;24.59;32.83;100163.22;5055692;28;20021;-61
2022/06/23 08:49:03;;;;;;;0.82;0.82;;;;;;;24.58;32.67;100148.75;5054651;28;20044;-62
2022/06/23 08:51:53;;;;;;;0.80;0.80;;;;;;;24.57;32.59;100152.56;5054757;28;20493;-61
2022/06/23 08:54:33;;;;;;;0.70;0.70;;;;;;;24.63;32.52;100150.59;5056164;28;20035;-61
2022/06/23 08:57:19;;;;;;;0.70;0.57;;;;;;;24.63;32.44;100156.91;5054383;28;20029;-62
2022/06/23 08:59:54;;;;;;;0.63;0.60;;;;;;;24.49;32.90;100150.41;5055611;28;20091;-61
2022/06/23 09:02:36;;;;;;;0.88;0.70;;;;;;;24.45;32.76;100143.91;5054437;28;20048;-63
2022/06/23 09:05:08;;;;;;;0.73;0.73;;;;;;;24.49;32.81;100139.50;5054411;28;20087;-63
2022/06/23 09:08:11;;;;;;;1.27;0.80;;;;;;;24.54;33.10;100143.03;5055233;28;20086;-63
2022/06/23 09:10:51;;;;;;;0.65;0.65;;;;;;;24.57;32.98;100149.84;5054257;28;20159;-61
2022/06/23 09:13:23;;;;;;;0.80;0.80;;;;;;;24.57;32.95;100147.09;5054531;28;20113;-62
2022/06/23 09:16:04;;;;;;;0.77;0.73;;;;;;;24.57;33.19;100149.84;5055020;28;20045;-62
2022/06/23 09:18:35;;;;;;;0.80;0.77;;;;;;;24.46;33.11;100160.00;5062734;28;20032;-62
2022/06/23 09:21:13;;;;;;;0.65;0.65;;;;;;;24.44;33.24;100161.38;5073803;28;20486;-63
2022/06/23 09:24:03;;;;;;;0.52;0.52;;;;;;;24.45;33.24;100158.38;5073791;28;20047;-64
2022/06/23 09:26:44;;;;;;;0.75;0.75;;;;;;;24.47;33.60;100158.88;5075236;28;20017;-63
2022/06/23 09:29:22;;;;;;;6.40;0.77;;;;;;;24.40;33.68;100152.13;5057724;28;20040;-63
2022/06/23 09:32:21;;;;;;;0.98;0.52;;;;;;;24.38;33.90;100144.22;5074307;28;20044;-63
2022/06/23 09:35:05;;;;;;;0.70;0.70;;;;;;;24.39;33.56;100145.88;5074681;28;20040;-63
2022/06/23 09:37:49;;;;;;;2.17;0.90;;;;;;;24.46;33.39;100146.34;5075268;28;20032;-63
2022/06/23 09:40:33;;;;;;;1.23;0.88;;;;;;;24.51;33.31;100150.97;5075140;28;20378;-64
2022/06/23 09:43:04;;;;;;;;;;;;;;;24.55;33.46;100144.66;5075633;28;20055;-62
2022/06/23 09:45:42;;;;;;;1.20;0.75;;;;;;;24.54;33.43;100132.13;5074932;28;19965;-63
2022/06/23 09:48:30;;;;;;;0.60;0.60;;;;;;;24.57;33.52;100127.19;5073324;28;20050;-63
2022/06/23 09:50:55;;;;;;;0.70;0.70;;;;;;;24.48;33.65;100133.22;5073182;28;20036;-65
2022/06/23 09:53:24;;;;;;;0.60;0.60;;;;;;;24.54;33.54;100123.91;5074857;28;20035;-63
2022/06/23 09:56:17;;;;;;;0.70;0.68;;;;;;;24.55;33.80;100131.00;5074572;28;20047;-63
2022/06/23 09:58:48;;;;;;;0.65;0.65;;;;;;;24.44;33.92;100136.81;5073290;28;20024;-64
2022/06/23 10:01:18;;;;;;;0.80;0.80;;;;;;;24.53;34.08;100146.03;5074544;28;20110;-63
2022/06/23 10:03:58;;;;;;;0.60;0.60;;;;;;;24.58;34.17;100143.28;5073201;28;20471;-64
2022/06/23 10:06:42;;;;;;;1.33;0.95;;;;;;;24.56;34.35;100150.94;5074134;28;20078;-63
2022/06/23 10:09:23;;;;;;;1.02;0.93;;;;;;;24.57;34.28;100151.75;5074535;28;20036;-63
2022/06/23 10:12:01;;;;;;;1.58;0.70;;;;;;;24.55;34.64;100154.78;5074434;28;20036;-63
2022/06/23 10:14:45;;;;;;;0.68;0.68;;;;;;;24.60;34.72;100168.38;5074337;28;20024;-63
2022/06/23 10:17:36;;;;;;;0.85;0.80;;;;;;;24.59;34.57;100174.13;5072755;28;20107;-63
2022/06/23 10:20:01;;;;;;;0.65;0.55;;;;;;;24.70;34.41;100165.56;5032821;28;20033;-64
2022/06/23 10:22:45;;;;;;;0.73;0.60;;;;;;;24.77;34.49;100161.66;5034088;28;20036;-63
2022/06/23 10:25:46;;;;;;;1.27;1.00;;;;;;;24.76;34.76;100166.31;5033737;28;20104;-63
2022/06/23 10:29:01;;;;;;;0.98;0.80;;;;;;;24.78;34.42;100158.66;5025544;28;20037;-63
2022/06/23 10:31:51;;;;;;;3.45;0.90;;;;;;;24.85;34.35;100163.78;5011829;28;20037;-62
2022/06/23 10:34:38;;;;;;;1.23;0.63;;;;;;;24.89;34.57;100165.66;5011917;28;20038;-62
2022/06/23 10:37:47;;;;;;;0.73;0.60;;;;;;;24.78;34.95;100175.03;5011892;28;20034;-63
2022/06/23 10:40:18;;;;;;;6.63;0.90;;;;;;;24.76;35.19;100177.25;5011628;28;20456;-65
2022/06/23 10:43:01;;;;;;;1.85;0.75;;;;;;;24.65;35.15;100175.75;5027212;28;20022;-65
2022/06/23 10:45:43;;;;;;;3.45;0.77;;;;;;;24.69;35.11;100171.31;5011643;28;20111;-66
2022/06/23 10:48:45;;;;;;;2.72;0.88;;;;;;;24.63;35.14;100175.19;5011723;28;20030;-65
2022/06/23 10:51:32;;;;;;;1.60;1.00;;;;;;;24.69;35.18;100165.84;5011577;28;20120;-65
2022/06/23 10:54:14;;;;;;;6.00;1.20;;;;;;;24.71;35.49;100180.84;5011591;28;20065;-65
2022/06/23 10:56:45;;;;;;;1.05;0.50;;;;;;;24.57;35.37;100179.06;5011382;28;20113;-66
2022/06/23 10:59:24;;;;;;;2.72;1.00;;;;;;;24.70;35.32;100189.34;5011744;28;20076;-65
2022/06/23 11:02:02;;;;;;;2.17;0.98;;;;;;;24.80;34.99;100189.25;5011044;28;20038;-66
2022/06/23 11:04:37;;;;;;;1.90;0.93;;;;;;;24.90;34.86;100193.78;5031725;28;20065;-64
2022/06/23 11:07:25;;;;;;;1.05;0.80;;;;;;;24.84;34.98;100184.84;5033678;28;20112;-65
2022/06/23 11:09:58;;;;;;;0.70;0.70;;;;;;;24.91;34.72;100185.31;5011429;28;20046;-64
2022/06/23 11:12:27;;;;;;;0.63;0.60;;;;;;;24.91;34.66;100185.31;5011892;28;20037;-65
2022/06/23 11:15:11;;;;;;;1.98;0.73;;;;;;;24.92;34.67;100189.69;5012157;28;20030;-65
2022/06/23 11:17:42;;;;;;;0.60;0.60;;;;;;;24.87;34.76;100184.28;5011842;28;20026;-65
2022/06/23 11:20:18;;;;;;;0.63;0.60;;;;;;;24.87;34.70;100184.28;5011427;28;20053;-65
2022/06/23 11:22:57;;;;;;;2.05;0.60;;;;;;;24.91;34.49;100195.44;4995968;28;20094;-64
2022/06/23 11:25:35;;;;;;;1.08;0.60;;;;;;;24.90;34.56;100196.53;4995801;28;20084;-64
2022/06/23 11:28:30;;;;;;;1.25;0.80;;;;;;;24.88;34.69;100196.00;5011752;28;20045;-65
2022/06/23 11:31:16;;;;;;;0.75;0.60;;;;;;;24.91;34.83;100189.97;4996031;28;20029;-64
2022/06/23 11:34:11;;;;;;;0.90;0.60;;;;;;;24.89;34.73;100195.72;4997368;28;20030;-64
2022/06/23 11:37:01;;;;;;;0.77;0.75;;;;;;;24.78;35.19;100196.91;5008909;28;20045;-64
2022/06/23 11:39:48;;;;;;;0.77;0.70;;;;;;;24.87;35.05;100195.19;5011747;28;20531;-64
2022/06/23 11:42:31;;;;;;;0.75;0.75;;;;;;;24.92;35.09;100197.88;5012690;28;20042;-64
2022/06/23 11:45:26;;;;;;;0.60;0.60;;;;;;;24.89;34.97;100198.47;5012465;28;20033;-64
2022/06/23 11:48:04;;;;;;;1.83;0.70;;;;;;;24.81;35.04;100206.47;5030566;28;20064;-64
2022/06/23 11:50:51;;;;;;;0.82;0.80;;;;;;;24.84;35.64;100208.63;5033900;28;20040;-65
2022/06/23 11:53:26;;;;;;;0.77;0.55;;;;;;;24.81;35.28;100212.75;5032746;28;20037;-66
2022/06/23 11:55:54;;;;;;;1.40;0.80;;;;;;;24.76;35.74;100203.78;5037396;28;20220;-65
2022/06/23 11:58:53;;;;;;;0.85;0.70;;;;;;;24.87;35.50;100213.50;5019911;28;20037;-64
2022/06/23 12:01:20;;;;;;;1.77;0.80;;;;;;;24.89;35.37;100212.13;5036887;28;20512;-64
2022/06/23 12:04:06;;;;;;;0.57;0.57;;;;;;;24.85;35.12;100205.63;5037113;28;20321;-65
2022/06/23 12:07:13;;;;;;;0.70;0.70;;;;;;;24.85;35.72;100219.28;5034630;28;20084;-65
2022/06/23 12:10:09;;;;;;;1.52;0.82;;;;;;;24.86;35.72;100212.69;4975808;28;20604;-64
2022/06/23 12:12:35;;;;;;;1.13;0.73;;;;;;;24.84;36.11;100211.38;4975894;28;20118;-65
2022/06/23 12:15:04;;;;;;;1.05;0.73;;;;;;;24.77;35.74;100206.22;4959728;28;20378;-65
2022/06/23 12:17:32;;;;;;;1.55;0.80;;;;;;;24.78;36.27;100217.97;4975570;28;20040;-64
2022/06/23 12:20:28;;;;;;;1.52;0.88;;;;;;;24.73;36.10;100216.91;4978733;28;20092;-64
2022/06/23 12:23:04;;;;;;;1.17;0.73;;;;;;;24.77;36.05;100216.31;5014490;28;20037;-64